sensor_id;sensor_type;location;lat;lon;timestamp;temperature;humidity
2327;DHT22;1174;51.588;7.328;2023-04-29T00:01:49;12.50;99.90
2327;DHT22;1174;51.588;7.328;2023-04-29T00:07:40;12.50;99.90
2327;DHT22;1174;51.588;7.328;2023-04-29T00:10:25;12.50;99.90
2327;DHT22;1174;51.588;7.328;2023-04-29T00:12:57;12.40;99.90
2327;DHT22;1174;51.588;7.328;2023-04-29T00:15:31;12.50;99.90
2327;DHT22;1174;51.588;7.328;2023-04-29T00:17:58;12.60;99.90
2327;DHT22;1174;51.588;7.328;2023-04-29T00:20:25;12.50;99.90
2327;DHT22;1174;51.588;7.328;2023-04-29T00:22:54;12.50;99.90
2327;DHT22;1174;51.588;7.328;2023-04-29T00:25:42;12.50;99.90
2327;DHT22;1174;51.588;7.328;2023-04-29T00:28:15;12.40;99.90
2327;DHT22;1174;51.588;7.328;2023-04-29T00:30:59;12.50;99.90
2327;DHT22;1174;51.588;7.328;2023-04-29T00:33:57;12.50;99.90
2327;DHT22;1174;51.588;7.328;2023-04-29T00:36:50;12.40;99.90
2327;DHT22;1174;51.588;7.328;2023-04-29T00:43:10;12.00;99.90
2327;DHT22;1174;51.588;7.328;2023-04-29T00:48:42;12.00;99.90
2327;DHT22;1174;51.588;7.328;2023-04-29T00:51:15;12.00;99.90
2327;DHT22;1174;51.588;7.328;2023-04-29T00:53:48;11.90;99.90
2327;DHT22;1174;51.588;7.328;2023-04-29T00:56:25;12.00;99.90
2327;DHT22;1174;51.588;7.328;2023-04-29T00:59:04;12.00;99.90
2327;DHT22;1174;51.588;7.328;2023-04-29T01:01:31;12.10;99.90
2327;DHT22;1174;51.588;7.328;2023-04-29T01:04:21;12.10;99.90
2327;DHT22;1174;51.588;7.328;2023-04-29T01:14:14;11.90;99.90
2327;DHT22;1174;51.588;7.328;2023-04-29T01:16:44;11.80;99.90
2327;DHT22;1174;51.588;7.328;2023-04-29T02:18:12;11.80;99.90
2327;DHT22;1174;51.588;7.328;2023-04-29T02:33:24;11.40;99.90
2327;DHT22;1174;51.588;7.328;2023-04-29T02:36:15;11.40;99.90
2327;DHT22;1174;51.588;7.328;2023-04-29T02:39:08;11.30;99.90
2327;DHT22;1174;51.588;7.328;2023-04-29T02:41:53;11.30;99.90
2327;DHT22;1174;51.588;7.328;2023-04-29T02:44:37;11.30;99.90
2327;DHT22;1174;51.588;7.328;2023-04-29T02:47:27;11.30;99.90
2327;DHT22;1174;51.588;7.328;2023-04-29T02:50:26;11.40;99.90
2327;DHT22;1174;51.588;7.328;2023-04-29T02:53:16;11.40;99.90
2327;DHT22;1174;51.588;7.328;2023-04-29T02:55:58;11.30;99.90
2327;DHT22;1174;51.588;7.328;2023-04-29T02:58:39;11.40;99.90
2327;DHT22;1174;51.588;7.328;2023-04-29T03:01:09;11.20;99.90
2327;DHT22;1174;51.588;7.328;2023-04-29T03:03:36;11.20;99.90
2327;DHT22;1174;51.588;7.328;2023-04-29T03:06:20;11.10;99.90
2327;DHT22;1174;51.588;7.328;2023-04-29T03:08:51;11.10;99.90
2327;DHT22;1174;51.588;7.328;2023-04-29T03:11:26;11.10;99.90
2327;DHT22;1174;51.588;7.328;2023-04-29T03:13:53;11.10;99.90
2327;DHT22;1174;51.588;7.328;2023-04-29T03:16:34;11.10;99.90
2327;DHT22;1174;51.588;7.328;2023-04-29T03:19:18;11.10;99.90
2327;DHT22;1174;51.588;7.328;2023-04-29T03:21:54;11.10;99.90
2327;DHT22;1174;51.588;7.328;2023-04-29T03:24:44;11.10;99.90
2327;DHT22;1174;51.588;7.328;2023-04-29T03:27:24;11.10;99.90
2327;DHT22;1174;51.588;7.328;2023-04-29T03:30:15;11.10;99.90
2327;DHT22;1174;51.588;7.328;2023-04-29T03:32:42;11.10;99.90
2327;DHT22;1174;51.588;7.328;2023-04-29T03:35:11;11.10;99.90
2327;DHT22;1174;51.588;7.328;2023-04-29T03:37:57;11.20;99.90
2327;DHT22;1174;51.588;7.328;2023-04-29T03:47:52;11.10;99.90
2327;DHT22;1174;51.588;7.328;2023-04-29T04:01:58;11.00;99.90
2327;DHT22;1174;51.588;7.328;2023-04-29T04:04:54;11.10;99.90
2327;DHT22;1174;51.588;7.328;2023-04-29T04:07:58;11.10;99.90
2327;DHT22;1174;51.588;7.328;2023-04-29T04:11:08;11.20;99.90
2327;DHT22;1174;51.588;7.328;2023-04-29T04:13:53;11.20;99.90
2327;DHT22;1174;51.588;7.328;2023-04-29T04:20:13;11.20;99.90
2327;DHT22;1174;51.588;7.328;2023-04-29T04:23:31;11.10;99.90
2327;DHT22;1174;51.588;7.328;2023-04-29T04:30:07;11.10;99.90
2327;DHT22;1174;51.588;7.328;2023-04-29T04:37:52;11.20;99.90
2327;DHT22;1174;51.588;7.328;2023-04-29T04:40:22;11.20;99.90
2327;DHT22;1174;51.588;7.328;2023-04-29T04:47:00;11.20;99.90
2327;DHT22;1174;51.588;7.328;2023-04-29T05:00:34;11.40;99.90
2327;DHT22;1174;51.588;7.328;2023-04-29T05:04:08;11.30;99.90
2327;DHT22;1174;51.588;7.328;2023-04-29T05:15:37;11.40;99.90
2327;DHT22;1174;51.588;7.328;2023-04-29T05:18:47;11.40;99.90
2327;DHT22;1174;51.588;7.328;2023-04-29T05:21:33;11.50;99.90
2327;DHT22;1174;51.588;7.328;2023-04-29T05:24:12;11.40;99.90
2327;DHT22;1174;51.588;7.328;2023-04-29T05:27:35;11.40;99.90
2327;DHT22;1174;51.588;7.328;2023-04-29T05:30:02;11.40;99.90
2327;DHT22;1174;51.588;7.328;2023-04-29T05:32:37;11.40;99.90
2327;DHT22;1174;51.588;7.328;2023-04-29T05:35:06;11.30;99.90
2327;DHT22;1174;51.588;7.328;2023-04-29T05:37:35;11.40;99.90
2327;DHT22;1174;51.588;7.328;2023-04-29T05:40:12;11.50;99.90
2327;DHT22;1174;51.588;7.328;2023-04-29T05:42:42;11.50;99.90
2327;DHT22;1174;51.588;7.328;2023-04-29T06:16:00;11.30;99.90
2327;DHT22;1174;51.588;7.328;2023-04-29T06:20:07;11.50;99.90
2327;DHT22;1174;51.588;7.328;2023-04-29T06:22:12;11.50;99.90
2327;DHT22;1174;51.588;7.328;2023-04-29T06:24:39;11.40;99.90
2327;DHT22;1174;51.588;7.328;2023-04-29T06:28:05;11.30;99.90
2327;DHT22;1174;51.588;7.328;2023-04-29T06:31:55;11.40;99.90
2327;DHT22;1174;51.588;7.328;2023-04-29T06:41:46;11.10;99.90
2327;DHT22;1174;51.588;7.328;2023-04-29T06:59:13;11.30;99.90
2327;DHT22;1174;51.588;7.328;2023-04-29T07:02:20;11.30;99.90
2327;DHT22;1174;51.588;7.328;2023-04-29T07:08:52;11.30;99.90
2327;DHT22;1174;51.588;7.328;2023-04-29T07:11:47;11.30;99.90
2327;DHT22;1174;51.588;7.328;2023-04-29T08:07:39;11.60;99.90
2327;DHT22;1174;51.588;7.328;2023-04-29T08:20:22;11.30;99.90
2327;DHT22;1174;51.588;7.328;2023-04-29T08:23:40;11.50;99.90
2327;DHT22;1174;51.588;7.328;2023-04-29T08:27:18;11.70;99.90
2327;DHT22;1174;51.588;7.328;2023-04-29T08:30:31;11.70;99.90
2327;DHT22;1174;51.588;7.328;2023-04-29T08:32:59;11.60;99.90
2327;DHT22;1174;51.588;7.328;2023-04-29T08:35:41;11.50;99.90
2327;DHT22;1174;51.588;7.328;2023-04-29T08:38:22;11.50;99.90
2327;DHT22;1174;51.588;7.328;2023-04-29T08:44:42;11.60;99.90
2327;DHT22;1174;51.588;7.328;2023-04-29T08:54:30;11.90;99.90
2327;DHT22;1174;51.588;7.328;2023-04-29T08:57:59;11.80;99.90
2327;DHT22;1174;51.588;7.328;2023-04-29T09:08:00;12.10;99.90
2327;DHT22;1174;51.588;7.328;2023-04-29T09:10:58;12.10;99.90
2327;DHT22;1174;51.588;7.328;2023-04-29T09:14:51;12.30;99.90
2327;DHT22;1174;51.588;7.328;2023-04-29T09:51:12;13.60;99.90
2327;DHT22;1174;51.588;7.328;2023-04-29T09:55:31;13.60;99.90
2327;DHT22;1174;51.588;7.328;2023-04-29T09:57:46;13.80;99.90
2327;DHT22;1174;51.588;7.328;2023-04-29T10:31:57;14.50;99.90
2327;DHT22;1174;51.588;7.328;2023-04-29T10:35:20;14.40;99.90
2327;DHT22;1174;51.588;7.328;2023-04-29T10:44:09;14.60;99.90
2327;DHT22;1174;51.588;7.328;2023-04-29T10:45:38;14.80;99.90
2327;DHT22;1174;51.588;7.328;2023-04-29T11:49:29;18.00;99.90
2327;DHT22;1174;51.588;7.328;2023-04-29T11:53:08;17.70;99.90
2327;DHT22;1174;51.588;7.328;2023-04-29T11:56:00;17.90;99.90
2327;DHT22;1174;51.588;7.328;2023-04-29T11:59:48;18.00;99.90
2327;DHT22;1174;51.588;7.328;2023-04-29T12:03:21;17.90;99.90
2327;DHT22;1174;51.588;7.328;2023-04-29T12:06:04;17.80;99.90
2327;DHT22;1174;51.588;7.328;2023-04-29T12:08:40;17.80;99.90
2327;DHT22;1174;51.588;7.328;2023-04-29T12:11:19;17.70;99.90
2327;DHT22;1174;51.588;7.328;2023-04-29T12:14:08;17.60;99.90
2327;DHT22;1174;51.588;7.328;2023-04-29T12:19:51;17.00;99.90
2327;DHT22;1174;51.588;7.328;2023-04-29T12:22:49;16.90;99.90
2327;DHT22;1174;51.588;7.328;2023-04-29T12:25:38;16.80;99.90
2327;DHT22;1174;51.588;7.328;2023-04-29T12:37:57;16.60;99.90
2327;DHT22;1174;51.588;7.328;2023-04-29T12:41:34;16.40;99.90
2327;DHT22;1174;51.588;7.328;2023-04-29T12:47:49;16.70;99.90
2327;DHT22;1174;51.588;7.328;2023-04-29T12:57:49;17.00;99.90
2327;DHT22;1174;51.588;7.328;2023-04-29T13:00:29;17.20;99.90
2327;DHT22;1174;51.588;7.328;2023-04-29T13:03:20;17.30;99.90
2327;DHT22;1174;51.588;7.328;2023-04-29T13:12:32;16.90;99.90
2327;DHT22;1174;51.588;7.328;2023-04-29T13:15:13;16.80;99.90
2327;DHT22;1174;51.588;7.328;2023-04-29T13:17:58;16.60;99.90
2327;DHT22;1174;51.588;7.328;2023-04-29T13:20:28;16.50;99.90
2327;DHT22;1174;51.588;7.328;2023-04-29T13:29:36;16.00;99.90
2327;DHT22;1174;51.588;7.328;2023-04-29T13:32:25;15.90;99.90
2327;DHT22;1174;51.588;7.328;2023-04-29T13:35:07;15.90;99.90
2327;DHT22;1174;51.588;7.328;2023-04-29T13:37:48;15.90;99.90
2327;DHT22;1174;51.588;7.328;2023-04-29T13:51:13;16.50;99.90
2327;DHT22;1174;51.588;7.328;2023-04-29T13:57:12;17.10;99.90
2327;DHT22;1174;51.588;7.328;2023-04-29T14:06:45;17.20;99.90
2327;DHT22;1174;51.588;7.328;2023-04-29T14:09:15;17.10;99.90
2327;DHT22;1174;51.588;7.328;2023-04-29T14:12:24;17.20;99.90
2327;DHT22;1174;51.588;7.328;2023-04-29T14:15:03;17.30;99.90
2327;DHT22;1174;51.588;7.328;2023-04-29T14:17:44;17.20;99.90
2327;DHT22;1174;51.588;7.328;2023-04-29T14:23:23;17.20;99.90
2327;DHT22;1174;51.588;7.328;2023-04-29T14:26:54;17.20;99.90
2327;DHT22;1174;51.588;7.328;2023-04-29T14:29:35;17.30;99.90
2327;DHT22;1174;51.588;7.328;2023-04-29T14:32:11;17.40;99.90
2327;DHT22;1174;51.588;7.328;2023-04-29T14:34:52;17.50;99.90
2327;DHT22;1174;51.588;7.328;2023-04-29T14:37:53;17.60;99.90
2327;DHT22;1174;51.588;7.328;2023-04-29T14:40:42;17.70;99.90
2327;DHT22;1174;51.588;7.328;2023-04-29T14:44:12;17.50;99.90
2327;DHT22;1174;51.588;7.328;2023-04-29T14:47:17;17.40;99.90
2327;DHT22;1174;51.588;7.328;2023-04-29T14:50:46;17.50;99.90
2327;DHT22;1174;51.588;7.328;2023-04-29T14:54:27;17.40;99.90
2327;DHT22;1174;51.588;7.328;2023-04-29T14:57:37;17.50;99.90
2327;DHT22;1174;51.588;7.328;2023-04-29T15:00:39;17.60;99.90
2327;DHT22;1174;51.588;7.328;2023-04-29T15:03:28;17.60;99.90
2327;DHT22;1174;51.588;7.328;2023-04-29T15:06:05;18.00;99.90
2327;DHT22;1174;51.588;7.328;2023-04-29T15:08:45;18.00;99.90
2327;DHT22;1174;51.588;7.328;2023-04-29T15:18:04;17.70;99.90
2327;DHT22;1174;51.588;7.328;2023-04-29T15:21:13;17.50;99.90
2327;DHT22;1174;51.588;7.328;2023-04-29T15:24:27;17.40;99.90
2327;DHT22;1174;51.588;7.328;2023-04-29T15:27:55;17.50;99.90
2327;DHT22;1174;51.588;7.328;2023-04-29T15:30:39;17.40;99.90
2327;DHT22;1174;51.588;7.328;2023-04-29T15:40:46;17.10;99.90
2327;DHT22;1174;51.588;7.328;2023-04-29T15:46:08;17.30;99.90
2327;DHT22;1174;51.588;7.328;2023-04-29T15:52:39;17.20;99.90
2327;DHT22;1174;51.588;7.328;2023-04-29T15:56:29;17.30;99.90
2327;DHT22;1174;51.588;7.328;2023-04-29T16:12:02;16.60;99.90
2327;DHT22;1174;51.588;7.328;2023-04-29T16:15:17;16.70;99.90
2327;DHT22;1174;51.588;7.328;2023-04-29T16:18:18;16.60;99.90
2327;DHT22;1174;51.588;7.328;2023-04-29T16:21:35;16.40;99.90
2327;DHT22;1174;51.588;7.328;2023-04-29T16:24:20;16.40;99.90
2327;DHT22;1174;51.588;7.328;2023-04-29T16:34:08;16.50;99.90
2327;DHT22;1174;51.588;7.328;2023-04-29T16:36:53;16.50;99.90
2327;DHT22;1174;51.588;7.328;2023-04-29T16:40:03;16.40;99.90
2327;DHT22;1174;51.588;7.328;2023-04-29T16:48:34;16.40;99.90
2327;DHT22;1174;51.588;7.328;2023-04-29T16:49:51;16.60;99.90
2327;DHT22;1174;51.588;7.328;2023-04-29T17:02:24;16.50;99.90
2327;DHT22;1174;51.588;7.328;2023-04-29T17:05:11;16.40;99.90
2327;DHT22;1174;51.588;7.328;2023-04-29T17:07:55;16.30;99.90
2327;DHT22;1174;51.588;7.328;2023-04-29T17:20:41;16.40;99.90
2327;DHT22;1174;51.588;7.328;2023-04-29T17:23:32;16.30;99.90
2327;DHT22;1174;51.588;7.328;2023-04-29T17:29:47;16.20;99.90
2327;DHT22;1174;51.588;7.328;2023-04-29T17:32:31;16.20;99.90
2327;DHT22;1174;51.588;7.328;2023-04-29T17:35:27;16.20;99.90
2327;DHT22;1174;51.588;7.328;2023-04-29T17:38:26;16.20;99.90
2327;DHT22;1174;51.588;7.328;2023-04-29T17:44:33;16.20;99.90
2327;DHT22;1174;51.588;7.328;2023-04-29T17:47:26;16.10;99.90
2327;DHT22;1174;51.588;7.328;2023-04-29T17:50:06;16.00;99.90
2327;DHT22;1174;51.588;7.328;2023-04-29T17:52:41;16.00;99.90
2327;DHT22;1174;51.588;7.328;2023-04-29T17:58:40;16.10;99.90
2327;DHT22;1174;51.588;7.328;2023-04-29T18:01:10;16.00;99.90
2327;DHT22;1174;51.588;7.328;2023-04-29T18:03:46;16.00;99.90
2327;DHT22;1174;51.588;7.328;2023-04-29T18:06:58;16.00;99.90
2327;DHT22;1174;51.588;7.328;2023-04-29T18:19:40;15.90;99.90
2327;DHT22;1174;51.588;7.328;2023-04-29T18:22:24;15.80;99.90
2327;DHT22;1174;51.588;7.328;2023-04-29T18:25:42;15.80;99.90
2327;DHT22;1174;51.588;7.328;2023-04-29T18:29:00;15.90;99.90
2327;DHT22;1174;51.588;7.328;2023-04-29T18:31:56;15.90;99.90
2327;DHT22;1174;51.588;7.328;2023-04-29T18:35:07;15.80;99.90
2327;DHT22;1174;51.588;7.328;2023-04-29T18:42:59;15.80;99.90
2327;DHT22;1174;51.588;7.328;2023-04-29T18:48:31;15.40;99.90
2327;DHT22;1174;51.588;7.328;2023-04-29T18:51:09;15.30;99.90
2327;DHT22;1174;51.588;7.328;2023-04-29T18:56:30;15.10;99.90
2327;DHT22;1174;51.588;7.328;2023-04-29T18:59:03;15.10;99.90
2327;DHT22;1174;51.588;7.328;2023-04-29T19:02:16;15.00;99.90
2327;DHT22;1174;51.588;7.328;2023-04-29T19:05:01;14.90;99.90
2327;DHT22;1174;51.588;7.328;2023-04-29T19:08:12;14.70;99.90
2327;DHT22;1174;51.588;7.328;2023-04-29T19:10:59;14.60;99.90
2327;DHT22;1174;51.588;7.328;2023-04-29T19:13:38;14.40;99.90
2327;DHT22;1174;51.588;7.328;2023-04-29T19:16:34;14.30;99.90
2327;DHT22;1174;51.588;7.328;2023-04-29T19:19:25;14.20;99.90
2327;DHT22;1174;51.588;7.328;2023-04-29T19:22:39;14.10;99.90
2327;DHT22;1174;51.588;7.328;2023-04-29T19:25:31;13.90;99.90
2327;DHT22;1174;51.588;7.328;2023-04-29T19:38:16;13.20;99.90
2327;DHT22;1174;51.588;7.328;2023-04-29T19:40:43;13.20;99.90
2327;DHT22;1174;51.588;7.328;2023-04-29T19:43:48;13.10;99.90
2327;DHT22;1174;51.588;7.328;2023-04-29T19:46:18;13.00;99.90
2327;DHT22;1174;51.588;7.328;2023-04-29T19:49:29;13.00;99.90
2327;DHT22;1174;51.588;7.328;2023-04-29T19:52:16;13.00;99.90
2327;DHT22;1174;51.588;7.328;2023-04-29T19:55:32;13.00;99.90
2327;DHT22;1174;51.588;7.328;2023-04-29T19:58:01;12.80;99.90
2327;DHT22;1174;51.588;7.328;2023-04-29T20:00:30;12.80;99.90
2327;DHT22;1174;51.588;7.328;2023-04-29T20:06:19;12.90;99.90
2327;DHT22;1174;51.588;7.328;2023-04-29T20:09:07;12.90;99.90
2327;DHT22;1174;51.588;7.328;2023-04-29T20:12:06;13.00;99.90
2327;DHT22;1174;51.588;7.328;2023-04-29T20:18:30;12.90;99.90
2327;DHT22;1174;51.588;7.328;2023-04-29T20:21:14;12.80;99.90
2327;DHT22;1174;51.588;7.328;2023-04-29T20:23:49;12.80;99.90
2327;DHT22;1174;51.588;7.328;2023-04-29T20:26:25;12.80;99.90
2327;DHT22;1174;51.588;7.328;2023-04-29T20:29:16;12.80;99.90
2327;DHT22;1174;51.588;7.328;2023-04-29T20:32:10;12.80;99.90
2327;DHT22;1174;51.588;7.328;2023-04-29T20:34:37;12.90;99.90
2327;DHT22;1174;51.588;7.328;2023-04-29T20:37:08;12.80;99.90
2327;DHT22;1174;51.588;7.328;2023-04-29T20:39:35;12.70;99.90
2327;DHT22;1174;51.588;7.328;2023-04-29T20:42:12;12.60;99.90
2327;DHT22;1174;51.588;7.328;2023-04-29T20:48:11;12.50;99.90
2327;DHT22;1174;51.588;7.328;2023-04-29T20:50:43;12.40;99.90
2327;DHT22;1174;51.588;7.328;2023-04-29T20:53:38;12.30;99.90
2327;DHT22;1174;51.588;7.328;2023-04-29T20:56:25;12.30;99.90
2327;DHT22;1174;51.588;7.328;2023-04-29T20:59:06;12.20;99.90
2327;DHT22;1174;51.588;7.328;2023-04-29T21:01:39;12.10;99.90
2327;DHT22;1174;51.588;7.328;2023-04-29T21:04:06;12.00;99.90
2327;DHT22;1174;51.588;7.328;2023-04-29T21:06:42;12.00;99.90
2327;DHT22;1174;51.588;7.328;2023-04-29T21:12:31;11.90;99.90
2327;DHT22;1174;51.588;7.328;2023-04-29T21:15:45;11.80;99.90
2327;DHT22;1174;51.588;7.328;2023-04-29T21:18:27;11.70;99.90
2327;DHT22;1174;51.588;7.328;2023-04-29T21:21:00;11.80;99.90
2327;DHT22;1174;51.588;7.328;2023-04-29T21:24:15;11.70;99.90
2327;DHT22;1174;51.588;7.328;2023-04-29T21:27:30;11.60;99.90
2327;DHT22;1174;51.588;7.328;2023-04-29T21:34:10;11.70;99.90
2327;DHT22;1174;51.588;7.328;2023-04-29T21:36:48;11.60;99.90
2327;DHT22;1174;51.588;7.328;2023-04-29T21:39:34;11.60;99.90
2327;DHT22;1174;51.588;7.328;2023-04-29T21:42:43;11.50;99.90
2327;DHT22;1174;51.588;7.328;2023-04-29T21:45:27;11.40;99.90
2327;DHT22;1174;51.588;7.328;2023-04-29T21:54:38;11.30;99.90
2327;DHT22;1174;51.588;7.328;2023-04-29T21:57:05;11.20;99.90
2327;DHT22;1174;51.588;7.328;2023-04-29T21:59:32;11.20;99.90
2327;DHT22;1174;51.588;7.328;2023-04-29T22:05:34;11.20;99.90
2327;DHT22;1174;51.588;7.328;2023-04-29T22:08:05;11.10;99.90
2327;DHT22;1174;51.588;7.328;2023-04-29T22:10:52;11.00;99.90
2327;DHT22;1174;51.588;7.328;2023-04-29T22:13:33;11.00;99.90
2327;DHT22;1174;51.588;7.328;2023-04-29T22:16:24;11.00;99.90
2327;DHT22;1174;51.588;7.328;2023-04-29T22:23:14;10.90;99.90
2327;DHT22;1174;51.588;7.328;2023-04-29T22:28:57;11.00;99.90
2327;DHT22;1174;51.588;7.328;2023-04-29T22:31:37;10.90;99.90
2327;DHT22;1174;51.588;7.328;2023-04-29T22:34:30;10.70;99.90
2327;DHT22;1174;51.588;7.328;2023-04-29T22:47:09;10.70;99.90
2327;DHT22;1174;51.588;7.328;2023-04-29T23:00:44;10.60;99.90
2327;DHT22;1174;51.588;7.328;2023-04-29T23:03:03;10.60;99.90
2327;DHT22;1174;51.588;7.328;2023-04-29T23:05:32;10.50;99.90
2327;DHT22;1174;51.588;7.328;2023-04-29T23:08:25;10.40;99.90
2327;DHT22;1174;51.588;7.328;2023-04-29T23:11:27;10.40;99.90
2327;DHT22;1174;51.588;7.328;2023-04-29T23:14:10;10.40;99.90
2327;DHT22;1174;51.588;7.328;2023-04-29T23:18:14;10.40;99.90
2327;DHT22;1174;51.588;7.328;2023-04-29T23:20:55;10.40;99.90
2327;DHT22;1174;51.588;7.328;2023-04-29T23:23:41;10.30;99.90
2327;DHT22;1174;51.588;7.328;2023-04-29T23:29:31;10.20;99.90
2327;DHT22;1174;51.588;7.328;2023-04-29T23:32:32;10.10;99.90
2327;DHT22;1174;51.588;7.328;2023-04-29T23:35:16;10.20;99.90
2327;DHT22;1174;51.588;7.328;2023-04-29T23:37:51;10.10;99.90
2327;DHT22;1174;51.588;7.328;2023-04-29T23:40:31;10.20;99.90
2327;DHT22;1174;51.588;7.328;2023-04-29T23:52:18;10.10;99.90
2327;DHT22;1174;51.588;7.328;2023-04-29T23:54:55;10.10;99.90
2327;DHT22;1174;51.588;7.328;2023-04-29T23:57:36;9.70;99.90
